createdAt,value
2022-08-19T00:01:53.840Z,94822.19
2022-08-19T00:04:27.474Z,94817.38
2022-08-19T00:06:55.201Z,94818.44
2022-08-19T00:09:23.914Z,94815.47
2022-08-19T00:11:51.130Z,94821.53
2022-08-19T00:14:18.995Z,94814.81
2022-08-19T00:16:48.746Z,94820.66
2022-08-19T00:19:17.196Z,94822.97
2022-08-19T00:21:44.441Z,94825.28
2022-08-19T00:24:14.306Z,94829.41
2022-08-19T00:26:42.631Z,94833.00
2022-08-19T00:29:11.837Z,94840.13
2022-08-19T00:31:39.079Z,94832.81
2022-08-19T00:34:06.133Z,94825.56
2022-08-19T00:36:34.135Z,94832.13
2022-08-19T00:39:02.057Z,94833.06
2022-08-19T00:41:29.487Z,94817.63
2022-08-19T00:44:11.569Z,94821.22
2022-08-19T00:46:41.231Z,94816.41
2022-08-19T00:49:15.736Z,94823.66
2022-08-19T00:51:45.980Z,94821.72
2022-08-19T00:54:13.386Z,94818.97
2022-08-19T00:56:41.612Z,94820.25
2022-08-19T00:59:10.163Z,94813.53
2022-08-19T01:01:39.437Z,94814.78
2022-08-19T01:04:07.504Z,94816.50
2022-08-19T01:06:36.602Z,94820.38
2022-08-19T01:09:04.113Z,94827.47
2022-08-19T01:11:34.326Z,94818.88
2022-08-19T01:14:01.310Z,94814.31
2022-08-19T01:16:31.271Z,94823.22
2022-08-19T01:18:58.203Z,94821.28
2022-08-19T01:21:45.901Z,94815.69
2022-08-19T01:24:12.907Z,94827.94
2022-08-19T01:26:44.093Z,94817.28
2022-08-19T01:29:12.118Z,94821.97
2022-08-19T01:31:40.306Z,94816.28
2022-08-19T01:34:07.834Z,94822.22
2022-08-19T01:36:43.156Z,94832.28
2022-08-19T01:39:13.902Z,94816.59
2022-08-19T01:41:41.208Z,94815.78
2022-08-19T01:44:17.712Z,94830.31
2022-08-19T01:46:48.740Z,94828.38
2022-08-19T01:49:18.246Z,94825.72
2022-08-19T01:51:45.306Z,94825.38
2022-08-19T01:54:23.133Z,94832.09
2022-08-19T01:56:59.314Z,94823.97
2022-08-19T01:59:26.313Z,94829.69
2022-08-19T02:01:53.232Z,94832.19
2022-08-19T02:04:20.328Z,94831.78
2022-08-19T02:06:47.285Z,94837.84
2022-08-19T02:09:14.244Z,94814.19
2022-08-19T02:11:42.586Z,94823.00
2022-08-19T02:14:09.797Z,94823.81
2022-08-19T02:16:38.034Z,94822.41
2022-08-19T02:19:05.605Z,94825.28
2022-08-19T02:21:33.054Z,94821.84
2022-08-19T02:24:00.727Z,94830.88
2022-08-19T02:26:27.821Z,94824.59
2022-08-19T02:28:55.821Z,94831.91
2022-08-19T02:31:25.848Z,94829.84
2022-08-19T02:33:56.342Z,94830.31
2022-08-19T02:36:25.319Z,94827.53
2022-08-19T02:38:55.074Z,94831.63
2022-08-19T02:41:33.693Z,94831.53
2022-08-19T02:44:30.245Z,94826.50
2022-08-19T02:46:53.172Z,94832.63
2022-08-19T02:49:20.939Z,94835.31
2022-08-19T02:51:48.769Z,94837.41
2022-08-19T02:54:16.610Z,94834.03
2022-08-19T02:56:44.837Z,94840.09
2022-08-19T02:59:13.178Z,94839.72
2022-08-19T03:01:42.703Z,94842.22
2022-08-19T03:04:12.800Z,94843.00
2022-08-19T03:06:42.890Z,94840.59
2022-08-19T03:09:10.866Z,94828.97
2022-08-19T03:11:38.951Z,94836.38
2022-08-19T03:14:08.211Z,94823.84
2022-08-19T03:16:42.157Z,94841.34
2022-08-19T03:19:10.403Z,94826.47
2022-08-19T03:21:37.563Z,94833.91
2022-08-19T03:24:08.068Z,94830.59
2022-08-19T03:26:39.175Z,94835.69
2022-08-19T03:29:06.757Z,94846.84
2022-08-19T03:31:44.941Z,94841.88
2022-08-19T03:34:27.579Z,94841.50
2022-08-19T03:36:59.639Z,94835.28
2022-08-19T03:39:27.390Z,94838.13
2022-08-19T03:42:32.154Z,94843.59
2022-08-19T03:44:46.092Z,94846.44
2022-08-19T03:47:17.483Z,94850.28
2022-08-19T03:49:45.528Z,94849.94
2022-08-19T03:52:13.044Z,94866.56
2022-08-19T03:54:40.698Z,94853.28
2022-08-19T03:57:08.443Z,94855.69
2022-08-19T03:59:37.629Z,94854.63
2022-08-19T04:02:10.351Z,94863.63
2022-08-19T04:04:42.698Z,94869.69
2022-08-19T04:07:11.337Z,94871.28
2022-08-19T04:09:38.436Z,94874.31
2022-08-19T04:12:06.679Z,94871.47
2022-08-19T04:14:34.926Z,94874.69
2022-08-19T04:17:06.101Z,94882.94
2022-08-19T04:19:36.925Z,94869.44
2022-08-19T04:22:04.572Z,94881.91
2022-08-19T04:24:31.755Z,94869.66
2022-08-19T04:27:01.293Z,94876.88
2022-08-19T04:29:28.828Z,94877.25
2022-08-19T04:31:57.469Z,94877.31
2022-08-19T04:34:27.880Z,94881.09
2022-08-19T04:36:56.700Z,94879.44
2022-08-19T04:39:47.991Z,94884.59
2022-08-19T04:42:35.606Z,94878.69
2022-08-19T04:45:05.286Z,94882.91
2022-08-19T04:47:47.119Z,94887.72
2022-08-19T04:50:16.922Z,94881.56
2022-08-19T04:52:46.092Z,94882.09
2022-08-19T04:55:13.810Z,94882.56
2022-08-19T04:57:41.372Z,94886.16
2022-08-19T05:00:10.168Z,94886.88
2022-08-19T05:02:37.525Z,94882.84
2022-08-19T05:05:04.981Z,94892.94
2022-08-19T05:07:32.023Z,94887.31
2022-08-19T05:09:59.364Z,94886.06
2022-08-19T05:12:29.387Z,94892.03
2022-08-19T05:14:58.294Z,94880.66
2022-08-19T05:17:28.210Z,94894.63
2022-08-19T05:20:15.466Z,94888.84
2022-08-19T05:22:44.220Z,94894.25
2022-08-19T05:25:19.650Z,94892.09
2022-08-19T05:27:47.514Z,94896.91
2022-08-19T05:30:14.872Z,94891.88
2022-08-19T05:32:43.262Z,94897.41
2022-08-19T05:35:10.701Z,94894.53
2022-08-19T05:37:37.976Z,94898.41
2022-08-19T05:40:05.495Z,94895.78
2022-08-19T05:42:32.861Z,94892.00
2022-08-19T05:44:59.811Z,94889.47
2022-08-19T05:47:27.049Z,94889.59
2022-08-19T05:49:53.983Z,94894.25
2022-08-19T05:52:26.134Z,94892.53
2022-08-19T05:54:56.850Z,94887.22
2022-08-19T05:57:25.619Z,94890.19
2022-08-19T05:59:58.133Z,94883.72
2022-08-19T06:02:32.032Z,94890.41
2022-08-19T06:04:59.283Z,94902.78
2022-08-19T06:07:26.298Z,94892.25
2022-08-19T06:09:58.995Z,94885.19
2022-08-19T06:12:34.229Z,94898.69
2022-08-19T06:15:04.602Z,94892.75
2022-08-19T06:17:32.402Z,94897.38
2022-08-19T06:20:00.409Z,94899.50
2022-08-19T06:22:28.479Z,94898.97
2022-08-19T06:24:56.919Z,94902.19
2022-08-19T06:27:24.000Z,94897.94
2022-08-19T06:29:51.288Z,94898.34
2022-08-19T06:32:20.111Z,94898.25
2022-08-19T06:34:47.615Z,94900.41
2022-08-19T06:37:15.466Z,94896.59
2022-08-19T06:39:44.647Z,94891.59
2022-08-19T06:42:14.457Z,94896.00
2022-08-19T06:44:48.174Z,94907.91
2022-08-19T06:47:23.055Z,94903.28
2022-08-19T06:49:54.022Z,94896.06
2022-08-19T06:52:21.060Z,94894.00
2022-08-19T06:54:55.672Z,94897.34
2022-08-19T06:57:27.966Z,94898.78
2022-08-19T06:59:57.106Z,94896.28
2022-08-19T07:02:27.445Z,94902.81
2022-08-19T07:04:54.739Z,94896.34
2022-08-19T07:07:23.354Z,94898.28
2022-08-19T07:09:58.522Z,94911.38
2022-08-19T07:12:38.134Z,94894.53
2022-08-19T07:15:09.961Z,94906.78
2022-08-19T07:17:41.878Z,94899.63
2022-08-19T07:20:10.556Z,94908.72
2022-08-19T07:22:41.134Z,94906.41
2022-08-19T07:25:09.717Z,94904.88
2022-08-19T07:27:36.805Z,94906.56
2022-08-19T07:30:04.626Z,94906.06
2022-08-19T07:32:32.455Z,94903.41
2022-08-19T07:35:01.691Z,94901.91
2022-08-19T07:37:33.003Z,94900.88
2022-08-19T07:40:01.937Z,94898.56
2022-08-19T07:42:31.012Z,94890.91
2022-08-19T07:44:59.551Z,94897.34
2022-08-19T07:47:58.507Z,94888.09
2022-08-19T07:50:14.556Z,94888.69
2022-08-19T07:52:41.910Z,94898.53
2022-08-19T07:55:40.212Z,94894.56
2022-08-19T07:57:58.357Z,94891.13
2022-08-19T08:00:25.618Z,94897.53
2022-08-19T08:02:55.781Z,94890.59
2022-08-19T08:05:43.948Z,94896.44
2022-08-19T08:08:32.043Z,94883.41
2022-08-19T08:10:59.946Z,94891.06
2022-08-19T08:13:28.179Z,94900.63
2022-08-19T08:15:56.417Z,94884.88
2022-08-19T08:18:27.891Z,94880.31
2022-08-19T08:20:58.653Z,94876.81
2022-08-19T08:23:27.000Z,94877.59
2022-08-19T08:25:56.687Z,94879.13
2022-08-19T08:28:26.240Z,94876.16
2022-08-19T08:30:58.611Z,94869.47
2022-08-19T08:33:33.399Z,94868.63
2022-08-19T08:36:12.066Z,94867.69
2022-08-19T08:38:40.933Z,94867.53
2022-08-19T08:41:50.401Z,94872.16
2022-08-19T08:44:23.614Z,94875.78
2022-08-19T08:47:02.752Z,94864.41
2022-08-19T08:49:44.762Z,94867.31
2022-08-19T08:52:19.538Z,94860.09
2022-08-19T08:54:55.538Z,94856.19
2022-08-19T08:57:56.077Z,94857.06
2022-08-19T09:00:30.660Z,94845.66
2022-08-19T09:02:59.485Z,94849.34
2022-08-19T09:05:48.414Z,94842.41
2022-08-19T09:08:20.858Z,94839.88
2022-08-19T09:10:55.280Z,94843.06
2022-08-19T09:13:43.207Z,94844.69
2022-08-19T09:16:16.986Z,94844.72
2022-08-19T09:18:45.757Z,94840.81
2022-08-19T09:21:13.323Z,94840.59
2022-08-19T09:23:40.523Z,94831.69
2022-08-19T09:26:16.747Z,94830.81
2022-08-19T09:28:48.790Z,94826.72
2022-08-19T09:31:19.895Z,94827.94
2022-08-19T09:33:48.237Z,94825.31
2022-08-19T09:36:21.754Z,94822.94
2022-08-19T09:39:02.598Z,94819.31
2022-08-19T09:41:29.771Z,94815.78
2022-08-19T09:43:59.235Z,94806.06
2022-08-19T09:46:29.427Z,94821.41
2022-08-19T09:49:06.467Z,94816.34
2022-08-19T09:51:35.124Z,94814.41
2022-08-19T09:54:05.854Z,94816.56
2022-08-19T09:56:34.066Z,94813.50
2022-08-19T09:59:03.187Z,94815.50
2022-08-19T10:01:32.319Z,94809.53
2022-08-19T10:04:00.756Z,94804.03
2022-08-19T10:06:45.249Z,94797.41
2022-08-19T10:09:14.267Z,94791.09
2022-08-19T10:11:48.786Z,94791.44
2022-08-19T10:14:23.568Z,94791.13
2022-08-19T10:16:52.842Z,94783.56
2022-08-19T10:19:26.107Z,94786.44
2022-08-19T10:22:00.237Z,94785.22
2022-08-19T10:24:29.175Z,94777.16
2022-08-19T10:26:59.801Z,94756.59
2022-08-19T10:29:32.124Z,94773.03
2022-08-19T10:32:09.413Z,94770.66
2022-08-19T10:34:48.909Z,94772.72
2022-08-19T10:37:23.802Z,94759.59
2022-08-19T10:39:56.062Z,94764.31
2022-08-19T10:42:23.239Z,94757.78
2022-08-19T10:44:51.911Z,94759.56
2022-08-19T10:47:24.799Z,94756.88
2022-08-19T10:50:14.037Z,94764.03
2022-08-19T10:52:49.489Z,94753.59
2022-08-19T10:55:46.220Z,94757.63
2022-08-19T10:58:16.029Z,94744.19
2022-08-19T11:00:46.758Z,94753.84
2022-08-19T11:03:13.851Z,94742.78
2022-08-19T11:05:41.796Z,94744.13
2022-08-19T11:08:22.595Z,94753.44
2022-08-19T11:10:51.234Z,94756.13
2022-08-19T11:13:18.147Z,94741.88
2022-08-19T11:15:47.030Z,94742.34
2022-08-19T11:18:14.574Z,94745.81
2022-08-19T11:20:41.521Z,94740.47
2022-08-19T11:23:08.779Z,94739.69
2022-08-19T11:25:36.394Z,94734.22
2022-08-19T11:28:03.558Z,94733.09
2022-08-19T11:30:30.556Z,94727.75
2022-08-19T11:32:57.627Z,94725.19
2022-08-19T11:35:24.606Z,94725.06
2022-08-19T11:37:51.510Z,94728.28
2022-08-19T11:40:18.880Z,94722.81
2022-08-19T11:42:58.146Z,94721.53
2022-08-19T11:45:26.582Z,94723.69
2022-08-19T11:47:53.907Z,94719.63
2022-08-19T11:50:22.127Z,94716.78
2022-08-19T11:52:50.786Z,94708.41
2022-08-19T11:55:17.843Z,94715.94
2022-08-19T11:57:44.852Z,94704.44
2022-08-19T12:00:13.971Z,94709.31
2022-08-19T12:02:41.901Z,94701.41
2022-08-19T12:05:12.273Z,94707.50
2022-08-19T12:07:41.996Z,94698.66
2022-08-19T12:10:09.408Z,94688.06
2022-08-19T12:12:43.930Z,94686.13
2022-08-19T12:15:15.431Z,94681.91
2022-08-19T12:17:43.357Z,94679.16
2022-08-19T12:20:11.609Z,94676.88
2022-08-19T12:22:40.529Z,94665.94
2022-08-19T12:25:08.596Z,94673.84
2022-08-19T12:27:40.807Z,94671.41
2022-08-19T12:30:11.579Z,94669.59
2022-08-19T12:32:40.254Z,94666.16
2022-08-19T12:35:10.314Z,94660.50
2022-08-19T12:37:37.753Z,94661.75
2022-08-19T12:40:05.993Z,94664.72
2022-08-19T12:42:32.945Z,94653.88
2022-08-19T12:44:59.870Z,94650.41
2022-08-19T12:47:27.671Z,94658.56
2022-08-19T12:49:56.087Z,94659.69
2022-08-19T12:52:28.356Z,94654.63
2022-08-19T12:54:57.439Z,94645.28
2022-08-19T12:57:32.338Z,94641.38
2022-08-19T13:00:15.242Z,94645.28
2022-08-19T13:02:45.645Z,94643.03
2022-08-19T13:05:21.966Z,94637.16
2022-08-19T13:07:49.352Z,94644.69
2022-08-19T13:10:20.713Z,94628.16
2022-08-19T13:12:50.818Z,94635.47
2022-08-19T13:15:23.729Z,94622.09
2022-08-19T13:17:54.254Z,94629.78
2022-08-19T13:20:22.598Z,94627.41
2022-08-19T13:22:50.140Z,94621.44
2022-08-19T13:25:18.779Z,94624.72
2022-08-19T13:27:46.245Z,94623.22
2022-08-19T13:30:34.198Z,94619.91
2022-08-19T13:33:15.342Z,94612.47
2022-08-19T13:35:58.101Z,94614.16
2022-08-19T13:38:25.953Z,94618.41
2022-08-19T13:40:54.169Z,94616.41
2022-08-19T13:43:23.925Z,94612.88
2022-08-19T13:45:54.924Z,94610.66
2022-08-19T13:48:22.632Z,94604.69
2022-08-19T13:50:49.617Z,94599.88
2022-08-19T13:53:17.539Z,94593.16
2022-08-19T13:55:44.776Z,94600.00
2022-08-19T13:58:12.907Z,94587.72
2022-08-19T14:00:43.013Z,94594.16
2022-08-19T14:03:10.796Z,94594.47
2022-08-19T14:05:37.673Z,94591.25
2022-08-19T14:08:04.779Z,94583.59
2022-08-19T14:10:32.718Z,94592.00
2022-08-19T14:13:02.439Z,94596.59
2022-08-19T14:15:30.640Z,94592.78
2022-08-19T14:17:57.999Z,94584.47
2022-08-19T14:20:26.025Z,94588.31
2022-08-19T14:22:54.014Z,94579.78
2022-08-19T14:25:26.910Z,94587.44
2022-08-19T14:27:54.371Z,94585.75
2022-08-19T14:30:28.023Z,94579.00
2022-08-19T14:33:00.489Z,94575.97
2022-08-19T14:35:29.920Z,94580.53
2022-08-19T14:37:58.766Z,94579.53
2022-08-19T14:40:28.613Z,94576.41
2022-08-19T14:43:05.387Z,94575.31
2022-08-19T14:45:35.180Z,94571.22
2022-08-19T14:48:04.942Z,94571.22
2022-08-19T14:50:32.026Z,94568.22
2022-08-19T14:53:11.974Z,94568.34
2022-08-19T14:55:43.898Z,94563.38
2022-08-19T14:58:29.451Z,94561.81
2022-08-19T15:01:01.069Z,94559.53
2022-08-19T15:03:29.666Z,94567.50
2022-08-19T15:05:58.824Z,94555.06
2022-08-19T15:08:27.229Z,94563.47
2022-08-19T15:10:54.739Z,94555.72
2022-08-19T15:13:22.435Z,94556.63
2022-08-19T15:15:49.860Z,94561.09
2022-08-19T15:18:17.070Z,94562.59
2022-08-19T15:20:46.753Z,94563.38
2022-08-19T15:23:15.719Z,94550.44
2022-08-19T15:25:43.386Z,94545.38
2022-08-19T15:28:14.525Z,94551.00
2022-08-19T15:30:42.043Z,94548.72
2022-08-19T15:33:09.080Z,94544.03
2022-08-19T15:35:36.065Z,94558.53
2022-08-19T15:38:03.149Z,94551.25
2022-08-19T15:40:30.261Z,94545.72
2022-08-19T15:42:58.277Z,94545.16
2022-08-19T15:45:33.051Z,94554.25
2022-08-19T15:48:01.434Z,94558.53
2022-08-19T15:50:31.571Z,94548.69
2022-08-19T15:53:03.484Z,94554.81
2022-08-19T15:55:34.754Z,94552.47
2022-08-19T15:58:30.442Z,94559.16
2022-08-19T16:01:23.618Z,94557.78
2022-08-19T16:04:14.898Z,94557.25
2022-08-19T16:06:48.467Z,94553.09
2022-08-19T16:09:17.375Z,94548.66
2022-08-19T16:11:46.089Z,94561.44
2022-08-19T16:14:18.624Z,94559.28
2022-08-19T16:16:47.902Z,94554.88
2022-08-19T16:19:17.150Z,94553.16
2022-08-19T16:21:48.932Z,94558.84
2022-08-19T16:24:18.273Z,94558.97
2022-08-19T16:26:45.490Z,94552.91
2022-08-19T16:29:13.728Z,94560.47
2022-08-19T16:31:43.849Z,94557.84
2022-08-19T16:34:12.311Z,94551.66
2022-08-19T16:36:42.177Z,94559.78
2022-08-19T16:39:12.020Z,94561.72
2022-08-19T16:41:40.984Z,94566.53
2022-08-19T16:44:09.897Z,94568.78
2022-08-19T16:46:41.780Z,94558.91
2022-08-19T16:49:11.424Z,94568.56
2022-08-19T16:51:39.338Z,94558.00
2022-08-19T16:54:07.302Z,94558.19
2022-08-19T16:56:35.500Z,94562.56
2022-08-19T16:59:03.316Z,94568.09
2022-08-19T17:01:30.379Z,94564.88
2022-08-19T17:03:57.459Z,94570.63
2022-08-19T17:06:28.212Z,94574.84
2022-08-19T17:08:58.491Z,94578.72
2022-08-19T17:11:28.043Z,94576.03
2022-08-19T17:13:56.863Z,94597.03
2022-08-19T17:16:26.296Z,94586.09
2022-08-19T17:18:56.568Z,94594.72
2022-08-19T17:21:28.713Z,94589.75
2022-08-19T17:23:56.979Z,94590.13
2022-08-19T17:26:25.488Z,94603.91
2022-08-19T17:28:54.187Z,94605.53
2022-08-19T17:31:23.815Z,94607.03
2022-08-19T17:33:52.336Z,94592.72
2022-08-19T17:36:23.793Z,94618.28
2022-08-19T17:38:52.246Z,94626.41
2022-08-19T17:41:19.189Z,94613.84
2022-08-19T17:43:46.168Z,94627.72
2022-08-19T17:46:18.742Z,94622.94
2022-08-19T17:48:52.929Z,94624.63
2022-08-19T17:51:41.947Z,94625.81
2022-08-19T17:54:14.677Z,94626.22
2022-08-19T17:56:42.485Z,94631.97
2022-08-19T17:59:13.979Z,94629.81
2022-08-19T18:01:53.286Z,94626.06
2022-08-19T18:04:23.037Z,94632.56
2022-08-19T18:06:52.921Z,94636.97
2022-08-19T18:09:42.210Z,94636.38
2022-08-19T18:12:12.510Z,94640.81
2022-08-19T18:14:40.132Z,94642.59
2022-08-19T18:17:10.251Z,94645.63
2022-08-19T18:19:43.268Z,94643.63
2022-08-19T18:22:13.820Z,94647.22
2022-08-19T18:24:42.357Z,94636.13
2022-08-19T18:27:10.274Z,94646.09
2022-08-19T18:29:38.677Z,94655.31
2022-08-19T18:32:12.366Z,94648.50
2022-08-19T18:34:40.163Z,94655.78
2022-08-19T18:37:07.113Z,94658.22
2022-08-19T18:39:52.544Z,94656.72
2022-08-19T18:42:37.939Z,94637.94
2022-08-19T18:45:25.196Z,94647.09
2022-08-19T18:48:26.456Z,94645.34
2022-08-19T18:50:58.734Z,94639.19
2022-08-19T18:53:28.726Z,94649.06
2022-08-19T18:55:56.455Z,94657.16
2022-08-19T18:58:32.530Z,94652.16
2022-08-19T19:01:11.421Z,94665.53
2022-08-19T19:03:45.506Z,94661.38
2022-08-19T19:06:19.311Z,94670.50
2022-08-19T19:08:47.324Z,94653.59
2022-08-19T19:11:17.922Z,94671.16
2022-08-19T19:13:47.124Z,94676.03
2022-08-19T19:16:14.069Z,94676.06
2022-08-19T19:18:41.022Z,94675.63
2022-08-19T19:21:09.457Z,94683.38
2022-08-19T19:23:40.857Z,94691.09
2022-08-19T19:26:10.704Z,94692.28
2022-08-19T19:28:43.916Z,94704.84
2022-08-19T19:31:14.417Z,94703.06
2022-08-19T19:33:42.370Z,94706.81
2022-08-19T19:36:09.548Z,94710.66
2022-08-19T19:38:37.132Z,94708.06
2022-08-19T19:41:04.919Z,94707.56
2022-08-19T19:43:40.935Z,94711.34
2022-08-19T19:46:09.056Z,94716.41
2022-08-19T19:48:36.394Z,94721.53
2022-08-19T19:51:04.846Z,94699.84
2022-08-19T19:53:31.699Z,94721.63
2022-08-19T19:55:59.041Z,94723.78
2022-08-19T19:58:30.329Z,94720.84
2022-08-19T20:00:59.363Z,94724.88
2022-08-19T20:03:27.313Z,94714.78
2022-08-19T20:05:54.817Z,94726.47
2022-08-19T20:08:40.342Z,94724.34
2022-08-19T20:11:07.966Z,94722.25
2022-08-19T20:13:35.513Z,94720.66
2022-08-19T20:16:06.065Z,94719.09
2022-08-19T20:18:33.014Z,94720.38
2022-08-19T20:21:00.799Z,94726.75
2022-08-19T20:23:27.898Z,94719.59
2022-08-19T20:25:54.799Z,94718.78
2022-08-19T20:28:23.221Z,94712.16
2022-08-19T20:30:50.288Z,94722.22
2022-08-19T20:33:17.327Z,94713.19
2022-08-19T20:35:45.468Z,94717.19
2022-08-19T20:38:13.154Z,94729.38
2022-08-19T20:40:41.345Z,94730.97
2022-08-19T20:43:10.827Z,94732.28
2022-08-19T20:45:38.282Z,94745.28
2022-08-19T20:48:08.049Z,94736.78
2022-08-19T20:50:36.638Z,94746.06
2022-08-19T20:53:14.254Z,94746.06
2022-08-19T20:55:44.780Z,94747.66
2022-08-19T20:58:13.643Z,94748.19
2022-08-19T21:00:41.731Z,94747.66
2022-08-19T21:03:08.697Z,94741.00
2022-08-19T21:05:36.255Z,94739.97
2022-08-19T21:08:04.836Z,94745.50
2022-08-19T21:10:32.288Z,94760.31
2022-08-19T21:12:59.239Z,94756.84
2022-08-19T21:15:26.327Z,94759.72
2022-08-19T21:17:53.336Z,94744.59
2022-08-19T21:20:20.360Z,94747.75
2022-08-19T21:22:47.318Z,94761.78
2022-08-19T21:25:16.439Z,94743.50
2022-08-19T21:27:43.601Z,94756.50
2022-08-19T21:30:11.503Z,94751.19
2022-08-19T21:32:38.439Z,94757.00
2022-08-19T21:35:05.894Z,94747.97
2022-08-19T21:40:18.106Z,94750.84
2022-08-19T21:42:46.036Z,94749.53
2022-08-19T21:45:14.761Z,94759.88
2022-08-19T21:47:41.772Z,94754.84
2022-08-19T21:50:09.498Z,94748.19
2022-08-19T21:52:37.855Z,94752.69
2022-08-19T21:55:06.978Z,94742.63
2022-08-19T21:57:33.997Z,94744.19
2022-08-19T22:00:01.575Z,94735.97
2022-08-19T22:02:32.466Z,94737.53
2022-08-19T22:04:59.809Z,94749.44
2022-08-19T22:07:26.759Z,94744.69
2022-08-19T22:09:53.724Z,94734.09
2022-08-19T22:12:30.508Z,94724.00
2022-08-19T22:14:59.027Z,94730.38
2022-08-19T22:17:27.726Z,94724.03
2022-08-19T22:19:56.405Z,94723.53
2022-08-19T22:22:26.414Z,94722.78
2022-08-19T22:24:54.520Z,94724.09
2022-08-19T22:27:21.608Z,94726.75
2022-08-19T22:29:52.674Z,94716.97
2022-08-19T22:32:26.931Z,94712.47
2022-08-19T22:35:01.106Z,94700.25
2022-08-19T22:37:29.708Z,94706.94
2022-08-19T22:39:56.681Z,94703.47
2022-08-19T22:42:24.974Z,94704.53
2022-08-19T22:45:01.498Z,94701.09
2022-08-19T22:47:29.463Z,94709.31
2022-08-19T22:49:59.238Z,94696.06
2022-08-19T22:52:26.223Z,94700.81
2022-08-19T22:54:59.096Z,94700.81
2022-08-19T22:57:26.002Z,94705.56
2022-08-19T22:59:54.008Z,94711.69
2022-08-19T23:02:34.737Z,94711.44
2022-08-19T23:05:02.863Z,94706.66
2022-08-19T23:07:29.934Z,94699.53
2022-08-19T23:09:56.952Z,94699.53
2022-08-19T23:12:39.278Z,94699.81
2022-08-19T23:15:10.819Z,94697.41
2022-08-19T23:17:38.066Z,94698.22
2022-08-19T23:20:06.585Z,94688.13
2022-08-19T23:22:33.773Z,94694.47
2022-08-19T23:25:11.665Z,94695.03
2022-08-19T23:27:56.982Z,94685.22
2022-08-19T23:30:26.944Z,94687.59
2022-08-19T23:33:07.708Z,94680.97
2022-08-19T23:35:41.180Z,94679.91
2022-08-19T23:38:10.031Z,94673.56
2022-08-19T23:40:38.924Z,94664.81
2022-08-19T23:43:08.220Z,94653.66
2022-08-19T23:45:40.726Z,94662.44
2022-08-19T23:48:18.657Z,94670.13
2022-08-19T23:50:46.385Z,94668.00
2022-08-19T23:53:14.694Z,94672.25
2022-08-19T23:55:44.453Z,94677.81
2022-08-19T23:58:12.607Z,94680.19
